createdAt,value
2019-05-10T00:00:11.867Z,21.59
2019-05-10T00:02:58.944Z,20.70
2019-05-10T00:05:45.600Z,21.04
2019-05-10T00:08:32.761Z,20.89
2019-05-10T00:11:05.097Z,21.53
2019-05-10T00:13:40.974Z,21.10
2019-05-10T00:16:09.215Z,20.52
2019-05-10T00:18:37.495Z,21.78
2019-05-10T00:21:05.829Z,21.24
2019-05-10T00:23:34.196Z,21.25
2019-05-10T00:26:02.534Z,22.31
2019-05-10T00:28:30.758Z,21.29
2019-05-10T00:30:59.487Z,20.92
2019-05-10T00:33:28.769Z,21.19
2019-05-10T00:35:57.007Z,21.63
2019-05-10T00:38:26.317Z,22.15
2019-05-10T00:40:54.618Z,21.04
2019-05-10T00:43:22.887Z,21.31
2019-05-10T00:45:51.168Z,22.27
2019-05-10T00:48:19.436Z,21.59
2019-05-10T00:50:48.737Z,22.36
2019-05-10T00:53:17.058Z,23.02
2019-05-10T00:55:45.392Z,22.89
2019-05-10T00:58:13.770Z,21.70
2019-05-10T01:00:42.069Z,22.07
2019-05-10T01:03:10.331Z,22.25
2019-05-10T01:05:38.596Z,21.18
2019-05-10T01:08:06.907Z,21.47
2019-05-10T01:10:35.172Z,21.77
2019-05-10T01:13:03.434Z,20.69
2019-05-10T01:15:31.796Z,20.81
2019-05-10T01:18:00.047Z,21.14
2019-05-10T01:20:28.329Z,21.52
2019-05-10T01:22:56.591Z,20.83
2019-05-10T01:25:34.497Z,21.25
2019-05-10T01:27:54.973Z,21.00
2019-05-10T01:30:23.302Z,20.29
2019-05-10T01:32:51.652Z,20.68
2019-05-10T01:35:21.064Z,21.18
2019-05-10T01:37:49.352Z,22.26
2019-05-10T01:40:17.970Z,21.47
2019-05-10T01:42:46.271Z,21.55
2019-05-10T01:45:14.639Z,20.71
2019-05-10T01:47:43.818Z,20.98
2019-05-10T01:50:12.195Z,21.62
2019-05-10T01:52:42.431Z,21.20
2019-05-10T01:55:10.783Z,21.64
2019-05-10T01:57:39.042Z,21.93
2019-05-10T02:00:08.841Z,21.30
2019-05-10T02:02:37.251Z,21.92
2019-05-10T02:05:06.194Z,20.79
2019-05-10T02:07:34.569Z,21.01
2019-05-10T02:10:04.069Z,20.87
2019-05-10T02:12:32.374Z,21.92
2019-05-10T02:15:00.676Z,20.82
2019-05-10T02:17:28.928Z,21.51
2019-05-10T02:19:57.244Z,21.11
2019-05-10T02:22:25.452Z,22.14
2019-05-10T02:24:53.706Z,21.70
2019-05-10T02:27:22.033Z,22.63
2019-05-10T02:29:50.308Z,21.42
2019-05-10T02:32:19.582Z,20.91
2019-05-10T02:34:47.862Z,22.11
2019-05-10T02:37:16.190Z,21.53
2019-05-10T02:39:44.425Z,21.15
2019-05-10T02:42:13.714Z,20.44
2019-05-10T02:44:41.994Z,21.75
2019-05-10T02:47:10.252Z,20.22
2019-05-10T02:49:38.571Z,20.56
2019-05-10T02:52:06.837Z,20.24
2019-05-10T02:54:35.093Z,20.40
2019-05-10T02:57:03.928Z,20.85
2019-05-10T02:59:33.532Z,20.83
2019-05-10T03:02:04.813Z,20.68
2019-05-10T03:04:35.585Z,20.31
2019-05-10T03:07:05.190Z,20.13
2019-05-10T03:09:35.260Z,20.66
2019-05-10T03:12:24.621Z,20.02
2019-05-10T03:14:54.802Z,20.11
2019-05-10T03:17:24.734Z,19.48
2019-05-10T03:19:54.234Z,19.49
2019-05-10T03:22:43.674Z,19.76
2019-05-10T03:25:14.038Z,20.16
2019-05-10T03:27:42.382Z,20.14
2019-05-10T03:30:11.220Z,20.19
2019-05-10T03:32:39.532Z,19.75
2019-05-10T03:35:08.193Z,20.32
2019-05-10T03:37:36.551Z,20.88
2019-05-10T03:40:08.656Z,19.99
2019-05-10T03:42:37.060Z,20.15
2019-05-10T03:45:08.287Z,19.54
2019-05-10T03:47:36.648Z,19.83
2019-05-10T03:50:08.524Z,20.14
2019-05-10T03:52:37.292Z,20.85
2019-05-10T03:55:06.500Z,20.72
2019-05-10T03:57:34.906Z,20.22
2019-05-10T04:00:04.846Z,19.94
2019-05-10T04:02:33.083Z,19.96
2019-05-10T04:05:01.354Z,20.71
2019-05-10T04:07:29.640Z,20.70
2019-05-10T04:09:57.913Z,20.00
2019-05-10T04:12:26.257Z,19.86
2019-05-10T04:14:54.634Z,20.47
2019-05-10T04:17:22.899Z,20.64
2019-05-10T04:19:51.213Z,20.90
2019-05-10T04:22:19.461Z,20.32
2019-05-10T04:24:47.738Z,19.93
2019-05-10T04:27:30.589Z,19.83
2019-05-10T04:29:46.084Z,19.48
2019-05-10T04:32:14.409Z,19.98
2019-05-10T04:34:42.685Z,19.94
2019-05-10T04:37:10.955Z,19.75
2019-05-10T04:39:39.240Z,19.86
2019-05-10T04:42:07.516Z,20.04
2019-05-10T04:44:35.814Z,19.84
2019-05-10T04:47:04.180Z,20.43
2019-05-10T04:49:32.554Z,19.91
2019-05-10T04:52:30.501Z,20.26
2019-05-10T04:55:06.586Z,20.71
2019-05-10T04:57:49.939Z,20.62
2019-05-10T05:00:08.487Z,20.88
2019-05-10T05:02:36.759Z,20.41
2019-05-10T05:05:06.285Z,20.44
2019-05-10T05:07:34.620Z,20.27
2019-05-10T05:10:03.665Z,20.22
2019-05-10T05:12:35.073Z,20.49
2019-05-10T05:15:05.287Z,20.01
2019-05-10T05:17:33.604Z,21.01
2019-05-10T05:20:02.059Z,20.46
2019-05-10T05:22:30.555Z,20.82
2019-05-10T05:25:01.271Z,20.31
2019-05-10T05:27:28.988Z,19.60
2019-05-10T05:29:57.249Z,19.98
2019-05-10T05:32:25.527Z,20.40
2019-05-10T05:34:53.799Z,20.90
2019-05-10T05:37:22.195Z,20.31
2019-05-10T05:39:50.501Z,20.25
2019-05-10T05:42:22.375Z,21.08
2019-05-10T05:44:48.908Z,20.42
2019-05-10T05:47:26.745Z,20.28
2019-05-10T05:50:01.281Z,20.58
2019-05-10T05:52:29.740Z,20.51
2019-05-10T05:54:59.308Z,20.51
2019-05-10T05:57:29.582Z,20.53
2019-05-10T06:00:03.961Z,20.95
2019-05-10T06:02:28.166Z,20.65
2019-05-10T06:04:56.432Z,21.02
2019-05-10T06:07:24.825Z,19.93
2019-05-10T06:09:53.063Z,20.43
2019-05-10T06:12:21.352Z,21.16
2019-05-10T06:14:52.212Z,20.37
2019-05-10T06:17:23.714Z,20.52
2019-05-10T06:19:49.801Z,20.76
2019-05-10T06:22:18.074Z,20.70
2019-05-10T06:24:51.813Z,20.89
2019-05-10T06:27:16.329Z,19.80
2019-05-10T06:29:44.744Z,21.17
2019-05-10T06:32:14.441Z,20.61
2019-05-10T06:34:42.732Z,20.20
2019-05-10T06:37:10.994Z,20.26
2019-05-10T06:39:39.283Z,21.03
2019-05-10T06:42:07.596Z,21.32
2019-05-10T06:44:35.880Z,21.23
2019-05-10T06:47:08.314Z,20.38
2019-05-10T06:49:34.301Z,21.33
2019-05-10T06:52:02.567Z,21.65
2019-05-10T06:54:30.859Z,20.73
2019-05-10T06:56:59.162Z,20.80
2019-05-10T06:59:27.449Z,21.79
2019-05-10T07:01:55.814Z,20.97
2019-05-10T07:04:24.125Z,21.40
2019-05-10T07:06:52.380Z,21.17
2019-05-10T07:09:20.677Z,20.49
2019-05-10T07:11:48.961Z,19.65
2019-05-10T07:14:17.235Z,20.99
2019-05-10T07:16:45.488Z,21.20
2019-05-10T07:19:13.775Z,21.95
2019-05-10T07:21:44.866Z,21.25
2019-05-10T07:24:12.262Z,23.18
2019-05-10T07:26:40.539Z,20.93
2019-05-10T07:29:08.994Z,21.55
2019-05-10T07:31:37.341Z,23.01
2019-05-10T07:34:09.624Z,21.83
2019-05-10T07:36:35.930Z,21.70
2019-05-10T07:39:08.400Z,21.14
2019-05-10T07:41:36.513Z,22.47
2019-05-10T07:44:08.211Z,22.00
2019-05-10T07:46:39.882Z,22.48
2019-05-10T07:49:04.856Z,22.44
2019-05-10T07:51:33.233Z,22.67
2019-05-10T07:54:04.448Z,22.59
2019-05-10T07:56:31.519Z,23.07
2019-05-10T07:59:00.669Z,21.91
2019-05-10T08:01:32.718Z,22.48
2019-05-10T08:03:59.330Z,21.91
2019-05-10T08:06:33.964Z,21.87
2019-05-10T08:09:01.907Z,22.50
2019-05-10T08:11:28.537Z,22.54
2019-05-10T08:14:05.335Z,22.86
2019-05-10T08:16:29.045Z,21.91
2019-05-10T08:19:01.067Z,22.48
2019-05-10T08:21:27.123Z,22.32
2019-05-10T08:23:59.046Z,23.13
2019-05-10T08:26:25.554Z,23.02
2019-05-10T08:28:54.868Z,23.38
2019-05-10T08:31:26.252Z,22.94
2019-05-10T08:33:58.535Z,23.84
2019-05-10T08:36:23.335Z,23.97
2019-05-10T08:39:03.439Z,24.23
2019-05-10T08:41:22.383Z,23.41
2019-05-10T08:43:52.535Z,23.76
2019-05-10T08:46:28.603Z,24.26
2019-05-10T08:48:53.764Z,23.14
2019-05-10T08:51:22.768Z,23.26
2019-05-10T08:53:53.511Z,23.45
2019-05-10T08:56:23.991Z,22.94
2019-05-10T08:58:53.595Z,23.20
2019-05-10T09:01:29.545Z,24.17
2019-05-10T09:03:55.208Z,23.69
2019-05-10T09:06:22.120Z,24.61
2019-05-10T09:08:52.954Z,22.87
2019-05-10T09:11:22.973Z,23.40
2019-05-10T09:13:53.186Z,22.86
2019-05-10T09:16:23.524Z,23.60
2019-05-10T09:18:53.666Z,23.32
2019-05-10T09:21:23.041Z,24.32
2019-05-10T09:24:01.354Z,25.18
2019-05-10T09:26:46.831Z,24.40
2019-05-10T09:29:13.332Z,24.21
2019-05-10T09:31:48.623Z,23.99
2019-05-10T09:34:12.224Z,24.29
2019-05-10T09:36:44.829Z,24.30
2019-05-10T09:39:17.529Z,26.42
2019-05-10T09:41:42.147Z,24.42
2019-05-10T09:44:12.890Z,25.43
2019-05-10T09:46:42.211Z,24.81
2019-05-10T09:49:15.775Z,24.67
2019-05-10T09:51:42.306Z,24.51
2019-05-10T09:54:10.824Z,25.38
2019-05-10T09:56:44.402Z,25.51
2019-05-10T09:59:10.008Z,24.86
2019-05-10T10:01:38.269Z,24.69
2019-05-10T10:04:06.582Z,24.07
2019-05-10T10:06:36.939Z,24.95
2019-05-10T10:09:10.916Z,25.20
2019-05-10T10:11:38.025Z,24.97
2019-05-10T10:14:07.579Z,24.52
2019-05-10T10:16:36.376Z,24.67
2019-05-10T10:19:07.023Z,24.50
2019-05-10T10:21:38.572Z,24.57
2019-05-10T10:24:14.521Z,26.38
2019-05-10T10:26:37.459Z,24.63
2019-05-10T10:29:07.366Z,25.84
2019-05-10T10:31:48.300Z,25.60
2019-05-10T10:34:07.620Z,24.57
2019-05-10T10:36:40.105Z,25.21
2019-05-10T10:39:07.493Z,26.62
2019-05-10T10:41:36.739Z,24.56
2019-05-10T10:44:05.065Z,24.82
2019-05-10T10:46:34.753Z,26.30
2019-05-10T10:49:05.341Z,26.17
2019-05-10T10:51:34.672Z,25.82
2019-05-10T10:54:03.100Z,26.30
2019-05-10T10:56:31.379Z,25.61
2019-05-10T10:58:59.654Z,25.12
2019-05-10T11:01:37.982Z,26.23
2019-05-10T11:04:03.479Z,27.53
2019-05-10T11:06:27.986Z,25.89
2019-05-10T11:08:56.248Z,26.03
2019-05-10T11:11:30.706Z,26.09
2019-05-10T11:14:04.592Z,28.26
2019-05-10T11:16:27.776Z,26.77
2019-05-10T11:18:56.080Z,27.26
2019-05-10T11:21:28.652Z,26.94
2019-05-10T11:23:54.584Z,26.25
2019-05-10T11:26:26.878Z,27.90
2019-05-10T11:28:53.002Z,27.03
2019-05-10T11:31:21.480Z,28.41
2019-05-10T11:33:56.122Z,26.71
2019-05-10T11:36:21.148Z,26.20
2019-05-10T11:38:56.543Z,27.19
2019-05-10T11:41:23.798Z,27.07
2019-05-10T11:43:49.664Z,26.33
2019-05-10T11:46:20.833Z,27.12
2019-05-10T11:48:48.110Z,27.09
2019-05-10T11:51:21.095Z,27.39
2019-05-10T11:53:59.535Z,27.51
2019-05-10T11:56:27.536Z,30.04
2019-05-10T11:59:02.162Z,30.94
2019-05-10T12:01:28.478Z,32.86
2019-05-10T12:03:56.716Z,31.89
2019-05-10T12:06:24.966Z,30.98
2019-05-10T12:09:00.866Z,32.22
2019-05-10T12:11:32.973Z,30.99
2019-05-10T12:13:57.375Z,31.16
2019-05-10T12:16:24.222Z,32.43
2019-05-10T12:21:22.485Z,31.65
2019-05-10T12:23:55.968Z,34.07
2019-05-10T12:26:50.395Z,33.48
2019-05-10T12:28:51.757Z,33.99
2019-05-10T12:31:21.085Z,31.66
2019-05-10T12:33:50.715Z,29.33
2019-05-10T12:36:25.612Z,29.30
2019-05-10T12:38:50.273Z,31.05
2019-05-10T12:41:18.559Z,29.65
2019-05-10T12:43:48.592Z,31.85
2019-05-10T12:46:16.944Z,33.74
2019-05-10T12:48:45.217Z,34.98
2019-05-10T12:51:16.172Z,33.55
2019-05-10T12:53:47.649Z,35.09
2019-05-10T12:56:13.751Z,37.38
2019-05-10T12:58:42.024Z,35.03
2019-05-10T13:01:10.288Z,35.38
2019-05-10T13:03:38.609Z,35.85
2019-05-10T13:06:08.859Z,34.95
2019-05-10T13:08:39.516Z,33.04
2019-05-10T13:11:07.928Z,35.70
2019-05-10T13:13:36.225Z,35.09
2019-05-10T13:16:09.859Z,37.32
2019-05-10T13:18:49.624Z,33.46
2019-05-10T13:21:07.902Z,35.46
2019-05-10T13:23:36.555Z,36.14
2019-05-10T13:26:05.929Z,36.74
2019-05-10T13:28:35.119Z,35.96
2019-05-10T13:31:05.563Z,34.85
2019-05-10T13:33:40.986Z,35.01
2019-05-10T13:36:03.583Z,35.14
2019-05-10T13:38:36.954Z,34.90
2019-05-10T13:41:01.997Z,35.35
2019-05-10T13:43:30.298Z,34.23
2019-05-10T13:45:58.592Z,30.19
2019-05-10T13:48:27.835Z,30.98
2019-05-10T13:50:57.128Z,29.21
2019-05-10T13:53:25.429Z,31.92
2019-05-10T13:55:53.691Z,33.51
2019-05-10T13:58:21.988Z,34.50
2019-05-10T14:00:50.288Z,33.43
2019-05-10T14:03:18.547Z,33.31
2019-05-10T14:05:46.898Z,31.78
2019-05-10T14:08:15.373Z,33.11
2019-05-10T14:10:43.644Z,31.29
2019-05-10T14:13:12.007Z,29.60
2019-05-10T14:15:42.404Z,30.04
2019-05-10T14:18:10.679Z,28.83
2019-05-10T14:20:38.983Z,29.15
2019-05-10T14:23:07.395Z,29.65
2019-05-10T14:25:37.143Z,29.27
2019-05-10T14:28:09.723Z,30.43
2019-05-10T14:30:35.725Z,29.65
2019-05-10T14:33:08.790Z,33.36
2019-05-10T14:35:34.032Z,32.09
2019-05-10T14:38:08.409Z,31.24
2019-05-10T14:40:32.363Z,33.72
2019-05-10T14:43:00.686Z,33.28
2019-05-10T14:45:28.944Z,31.34
2019-05-10T14:47:57.212Z,32.10
2019-05-10T14:50:28.271Z,30.99
2019-05-10T14:52:56.593Z,28.59
2019-05-10T14:55:28.091Z,28.68
2019-05-10T14:57:54.815Z,30.14
2019-05-10T15:00:23.111Z,28.94
2019-05-10T15:02:51.364Z,28.88
2019-05-10T15:05:19.723Z,29.30
2019-05-10T15:07:51.205Z,27.89
2019-05-10T15:10:19.092Z,28.27
2019-05-10T15:12:47.363Z,28.34
2019-05-10T15:15:15.697Z,28.05
2019-05-10T15:17:44.058Z,28.64
2019-05-10T15:20:12.404Z,28.38
2019-05-10T15:22:40.663Z,29.01
2019-05-10T15:25:17.654Z,28.00
2019-05-10T15:27:47.084Z,29.02
2019-05-10T15:30:18.709Z,28.88
2019-05-10T15:32:47.039Z,29.77
2019-05-10T15:35:15.407Z,30.25
2019-05-10T15:37:46.289Z,28.11
2019-05-10T15:40:14.862Z,29.11
2019-05-10T15:42:43.200Z,28.43
2019-05-10T15:45:12.653Z,28.49
2019-05-10T15:47:50.516Z,29.11
2019-05-10T15:50:11.979Z,30.18
2019-05-10T15:52:46.463Z,29.67
2019-05-10T15:55:10.337Z,29.81
2019-05-10T15:57:41.786Z,31.47
2019-05-10T16:00:38.164Z,33.31
2019-05-10T16:02:59.390Z,34.73
2019-05-10T16:05:42.494Z,30.09
2019-05-10T16:08:00.824Z,29.18
2019-05-10T16:10:38.709Z,28.70
2019-05-10T16:12:59.104Z,28.46
2019-05-10T16:15:28.292Z,29.13
2019-05-10T16:17:59.929Z,29.02
2019-05-10T16:20:26.551Z,28.54
2019-05-10T16:22:54.812Z,28.03
2019-05-10T16:25:23.068Z,28.60
2019-05-10T16:27:51.340Z,28.05
2019-05-10T16:30:20.692Z,28.98
2019-05-10T16:32:48.972Z,28.48
2019-05-10T16:35:17.307Z,28.74
2019-05-10T16:37:45.673Z,29.25
2019-05-10T16:40:14.193Z,29.89
2019-05-10T16:42:42.449Z,28.67
2019-05-10T16:45:11.255Z,28.77
2019-05-10T16:47:39.566Z,27.32
2019-05-10T16:50:08.409Z,27.76
2019-05-10T16:52:36.775Z,28.24
2019-05-10T16:55:09.554Z,28.20
2019-05-10T16:57:39.436Z,30.16
2019-05-10T17:00:10.528Z,28.78
2019-05-10T17:02:42.259Z,28.02
2019-05-10T17:05:09.527Z,28.41
2019-05-10T17:07:39.121Z,28.46
2019-05-10T17:10:08.070Z,28.67
2019-05-10T17:12:36.416Z,27.48
2019-05-10T17:15:05.875Z,27.94
2019-05-10T17:17:37.314Z,28.33
2019-05-10T17:20:13.722Z,28.68
2019-05-10T17:22:39.016Z,29.22
2019-05-10T17:25:09.089Z,27.11
2019-05-10T17:27:39.468Z,27.12
2019-05-10T17:30:08.400Z,28.14
2019-05-10T17:32:36.678Z,27.19
2019-05-10T17:35:07.556Z,27.99
2019-05-10T17:37:37.457Z,28.85
2019-05-10T17:40:10.623Z,29.44
2019-05-10T17:42:41.310Z,28.99
2019-05-10T17:45:10.110Z,30.26
2019-05-10T17:47:38.367Z,28.77
2019-05-10T17:50:09.043Z,27.81
2019-05-10T17:52:37.409Z,27.36
2019-05-10T17:55:11.048Z,28.06
2019-05-10T17:57:37.171Z,28.63
2019-05-10T18:00:09.096Z,29.05
2019-05-10T18:02:37.362Z,29.79
2019-05-10T18:05:08.118Z,29.69
2019-05-10T18:07:36.212Z,27.88
2019-05-10T18:10:05.332Z,27.81
2019-05-10T18:12:33.664Z,27.47
2019-05-10T18:15:05.049Z,27.77
2019-05-10T18:17:33.115Z,28.07
2019-05-10T18:20:02.213Z,28.44
2019-05-10T18:22:42.122Z,28.97
2019-05-10T18:25:20.362Z,28.28
2019-05-10T18:30:38.543Z,28.87
2019-05-10T18:33:12.342Z,29.42
2019-05-10T18:35:36.901Z,29.44
2019-05-10T18:38:05.168Z,29.44
2019-05-10T18:40:33.564Z,28.83
2019-05-10T18:43:05.726Z,27.97
2019-05-10T18:45:33.841Z,28.51
2019-05-10T18:48:02.122Z,28.15
2019-05-10T18:50:30.386Z,28.37
2019-05-10T18:53:00.647Z,28.77
2019-05-10T18:55:28.929Z,27.55
2019-05-10T18:57:57.203Z,29.18
2019-05-10T19:00:25.559Z,28.03
2019-05-10T19:02:55.221Z,29.03
2019-05-10T19:05:25.039Z,29.40
2019-05-10T19:08:03.176Z,28.60
2019-05-10T19:10:23.781Z,27.15
2019-05-10T19:12:59.495Z,26.88
2019-05-10T19:15:22.046Z,26.46
2019-05-10T19:17:50.337Z,27.32
2019-05-10T19:20:20.416Z,26.03
2019-05-10T19:22:48.679Z,27.33
2019-05-10T19:25:17.039Z,26.86
2019-05-10T19:27:50.618Z,26.88
2019-05-10T19:30:19.987Z,27.02
2019-05-10T19:32:45.290Z,26.10
2019-05-10T19:35:14.544Z,27.36
2019-05-10T19:37:42.817Z,26.09
2019-05-10T19:40:13.146Z,26.76
2019-05-10T19:42:42.955Z,26.34
2019-05-10T19:45:43.279Z,26.74
2019-05-10T19:47:41.600Z,26.81
2019-05-10T19:50:10.296Z,26.26
2019-05-10T19:52:38.593Z,25.94
2019-05-10T19:55:06.971Z,27.17
2019-05-10T19:57:36.349Z,26.98
2019-05-10T20:00:06.155Z,26.63
2019-05-10T20:02:34.537Z,25.72
2019-05-10T20:05:03.972Z,25.77
2019-05-10T20:07:45.469Z,26.85
2019-05-10T20:10:02.591Z,27.12
2019-05-10T20:12:31.978Z,27.13
2019-05-10T20:15:00.256Z,26.73
2019-05-10T20:17:28.697Z,26.97
2019-05-10T20:19:57.187Z,26.76
2019-05-10T20:22:25.480Z,27.89
2019-05-10T20:24:54.770Z,28.37
2019-05-10T20:27:23.074Z,27.29
2019-05-10T20:29:51.353Z,27.22
2019-05-10T20:32:19.600Z,27.78
2019-05-10T20:34:47.906Z,26.79
2019-05-10T20:37:16.169Z,28.02
2019-05-10T20:39:44.455Z,27.98
2019-05-10T20:42:12.732Z,28.42
2019-05-10T20:44:41.011Z,28.67
2019-05-10T20:47:10.314Z,28.51
2019-05-10T20:49:38.844Z,28.74
2019-05-10T20:52:07.160Z,27.68
2019-05-10T20:54:35.578Z,27.70
2019-05-10T20:57:04.831Z,28.12
2019-05-10T20:59:33.098Z,27.70
2019-05-10T21:02:01.419Z,28.16
2019-05-10T21:04:29.699Z,27.86
2019-05-10T21:06:57.968Z,27.84
2019-05-10T21:09:26.225Z,25.97
2019-05-10T21:11:54.487Z,25.75
2019-05-10T21:14:22.766Z,26.66
2019-05-10T21:16:51.041Z,26.25
2019-05-10T21:19:19.939Z,26.37
2019-05-10T21:21:48.489Z,26.46
2019-05-10T21:24:16.764Z,26.84
2019-05-10T21:26:45.080Z,27.33
2019-05-10T21:29:13.342Z,28.11
2019-05-10T21:31:41.634Z,28.42
2019-05-10T21:34:10.390Z,27.87
2019-05-10T21:36:38.860Z,27.75
2019-05-10T21:39:07.474Z,26.52
2019-05-10T21:41:35.751Z,27.28
2019-05-10T21:44:04.034Z,26.71
2019-05-10T21:46:32.282Z,27.03
2019-05-10T21:49:00.582Z,27.75
2019-05-10T21:51:28.851Z,28.25
2019-05-10T21:53:58.871Z,28.17
2019-05-10T21:56:27.117Z,26.97
2019-05-10T21:58:55.456Z,27.64
2019-05-10T22:01:23.807Z,27.78
2019-05-10T22:03:52.076Z,27.82
2019-05-10T22:06:20.355Z,27.15
2019-05-10T22:08:49.827Z,26.46
2019-05-10T22:11:18.361Z,27.05
2019-05-10T22:13:46.632Z,27.88
2019-05-10T22:16:14.904Z,28.14
2019-05-10T22:18:43.194Z,28.14
2019-05-10T22:21:11.429Z,27.76
2019-05-10T22:23:39.809Z,27.74
2019-05-10T22:26:08.052Z,27.50
2019-05-10T22:28:36.352Z,26.43
2019-05-10T22:31:04.707Z,26.87
2019-05-10T22:33:32.970Z,27.56
2019-05-10T22:36:01.240Z,27.52
2019-05-10T22:38:29.564Z,27.85
2019-05-10T22:40:57.848Z,27.91
2019-05-10T22:43:26.110Z,27.72
2019-05-10T22:45:54.361Z,27.54
2019-05-10T22:48:22.624Z,28.13
2019-05-10T22:50:50.906Z,26.59
2019-05-10T22:53:19.170Z,27.48
2019-05-10T22:55:47.459Z,26.08
2019-05-10T22:58:15.698Z,27.48
2019-05-10T23:00:44.224Z,27.39
2019-05-10T23:03:12.483Z,27.42
2019-05-10T23:05:40.764Z,27.38
2019-05-10T23:08:09.037Z,26.99
2019-05-10T23:10:37.305Z,26.76
2019-05-10T23:13:05.576Z,27.23
2019-05-10T23:15:33.829Z,26.96
2019-05-10T23:18:02.089Z,26.90
2019-05-10T23:20:30.351Z,26.97
2019-05-10T23:22:58.742Z,27.13
2019-05-10T23:25:26.994Z,26.02
2019-05-10T23:27:55.264Z,26.08
2019-05-10T23:30:23.531Z,25.62
2019-05-10T23:32:51.792Z,27.17
2019-05-10T23:35:20.055Z,26.97
2019-05-10T23:37:48.325Z,26.83
2019-05-10T23:40:24.156Z,26.23
2019-05-10T23:42:58.220Z,26.83
2019-05-10T23:45:26.778Z,26.66
2019-05-10T23:47:55.035Z,26.48
2019-05-10T23:50:23.299Z,26.86
2019-05-10T23:52:51.576Z,25.77
2019-05-10T23:55:19.843Z,25.89
2019-05-10T23:57:48.309Z,26.51
